Terminal Aerodrome Forecast
Issued by NWS North Platte, NE

Home | Current Version | Previous Version | Text Only | Print | Product List | Glossary Off
Versions: 1 2 3 4 5 6 7 8 9 10 11 12 13 14 15

000
FTUS43 KLBF 241720
TAFVTN
TAF
KVTN 241720Z 2418/2518 32017G24KT P6SM SCT100
     FM250100 35012KT P6SM FEW200
     FM250300 36006KT P6SM FEW250
     FM251000 29004KT P6SM FEW200=

USA.gov is the U.S. government's official web portal to all federal, state and local government web resources and services.